createdAt,value
2019-01-12T00:04:11.964Z,87.99
2019-01-12T00:09:16.721Z,87.27
2019-01-12T00:14:19.444Z,87.12
2019-01-12T00:19:24.169Z,87.17
2019-01-12T00:24:31.663Z,87.34
2019-01-12T00:29:33.578Z,87.33
2019-01-12T00:34:38.370Z,87.26
2019-01-12T00:39:47.314Z,87.74
2019-01-12T00:44:49.997Z,87.75
2019-01-12T00:49:52.795Z,87.62
2019-01-12T00:54:57.564Z,87.35
2019-01-12T01:00:02.339Z,87.23
2019-01-12T01:05:07.755Z,87.14
2019-01-12T01:10:14.703Z,87.32
2019-01-12T01:15:18.237Z,87.21
2019-01-12T01:20:20.931Z,87.07
2019-01-12T01:25:25.763Z,87.40
2019-01-12T01:30:28.448Z,87.39
2019-01-12T01:35:35.133Z,87.69
2019-01-12T01:40:37.881Z,87.54
2019-01-12T01:45:40.699Z,87.78
2019-01-12T01:50:45.707Z,87.78
2019-01-12T01:55:48.355Z,87.93
2019-01-12T02:00:51.014Z,87.89
2019-01-12T02:05:59.899Z,88.08
2019-01-12T02:11:04.629Z,87.98
2019-01-12T02:16:13.406Z,88.21
2019-01-12T02:21:18.214Z,88.14
2019-01-12T02:26:24.851Z,88.16
2019-01-12T02:31:27.508Z,88.27
2019-01-12T02:36:32.235Z,88.35
2019-01-12T02:41:37.200Z,88.37
2019-01-12T02:46:41.954Z,88.38
2019-01-12T02:51:48.747Z,88.53
2019-01-12T02:56:54.061Z,88.52
2019-01-12T03:01:58.855Z,88.66
2019-01-12T03:07:07.819Z,88.70
2019-01-12T03:17:19.455Z,88.47
2019-01-12T03:22:24.340Z,88.48
2019-01-12T03:27:31.136Z,88.48
2019-01-12T03:32:35.782Z,88.69
2019-01-12T03:37:38.415Z,88.71
2019-01-12T03:42:41.115Z,88.75
2019-01-12T03:47:45.940Z,88.77
2019-01-12T03:52:48.742Z,88.70
2019-01-12T03:57:51.684Z,88.63
2019-01-12T04:02:56.551Z,88.75
2019-01-12T04:07:59.242Z,88.87
2019-01-12T04:13:03.899Z,88.87
2019-01-12T04:18:06.770Z,88.80
2019-01-12T04:23:11.713Z,88.86
2019-01-12T04:28:18.590Z,88.92
2019-01-12T04:33:21.320Z,88.99
2019-01-12T04:38:24.067Z,88.92
2019-01-12T04:43:28.796Z,89.03
2019-01-12T04:48:33.507Z,88.82
2019-01-12T04:53:40.140Z,88.92
2019-01-12T04:58:42.853Z,89.09
2019-01-12T05:03:45.588Z,89.06
2019-01-12T05:08:50.431Z,89.03
2019-01-12T05:13:55.289Z,89.23
2019-01-12T05:19:00.124Z,89.33
2019-01-12T05:24:04.824Z,89.26
2019-01-12T05:29:09.614Z,89.34
2019-01-12T05:34:12.363Z,89.52
2019-01-12T05:39:17.113Z,89.51
2019-01-12T05:44:19.773Z,89.53
2019-01-12T05:49:24.441Z,89.40
2019-01-12T05:54:29.321Z,89.38
2019-01-12T05:59:34.024Z,89.58
2019-01-12T06:04:36.650Z,89.69
2019-01-12T06:09:43.573Z,89.80
2019-01-12T06:14:48.366Z,89.65
2019-01-12T06:19:53.119Z,89.79
2019-01-12T06:24:58.453Z,89.73
2019-01-12T06:30:03.184Z,89.79
2019-01-12T06:35:06.248Z,89.74
2019-01-12T06:40:11.593Z,89.73
2019-01-12T06:45:16.904Z,89.87
2019-01-12T06:50:25.939Z,90.05
2019-01-12T06:55:30.670Z,90.02
2019-01-12T07:00:35.398Z,89.99
2019-01-12T07:05:38.019Z,89.91
2019-01-12T07:10:42.735Z,89.92
2019-01-12T07:15:45.408Z,89.95
2019-01-12T07:20:50.110Z,89.93
2019-01-12T07:25:58.863Z,89.98
2019-01-12T07:31:03.688Z,90.00
2019-01-12T07:36:08.438Z,90.04
2019-01-12T07:41:15.175Z,89.85
2019-01-12T07:46:17.953Z,89.93
2019-01-12T07:51:20.640Z,89.92
2019-01-12T07:56:24.582Z,89.99
2019-01-12T08:01:27.659Z,90.07
2019-01-12T08:06:30.478Z,90.08
2019-01-12T08:11:33.319Z,90.12
2019-01-12T08:16:37.993Z,90.05
2019-01-12T08:21:40.674Z,90.00
2019-01-12T08:26:43.374Z,90.15
2019-01-12T08:31:46.104Z,90.30
2019-01-12T08:36:48.701Z,90.16
2019-01-12T08:41:51.334Z,90.20
2019-01-12T08:46:56.005Z,90.28
2019-01-12T08:51:58.860Z,90.25
2019-01-12T08:57:01.697Z,90.22
2019-01-12T09:02:06.704Z,90.39
2019-01-12T09:07:11.544Z,90.30
2019-01-12T09:12:19.129Z,90.25
2019-01-12T09:17:21.924Z,90.25
2019-01-12T09:22:24.573Z,90.46
2019-01-12T09:27:29.354Z,90.43
2019-01-12T09:32:31.929Z,90.41
2019-01-12T09:37:36.593Z,90.47
2019-01-12T09:42:39.303Z,90.39
2019-01-12T09:47:44.194Z,90.49
2019-01-12T09:52:47.343Z,90.55
2019-01-12T09:57:50.539Z,90.50
2019-01-12T10:02:53.273Z,90.61
2019-01-12T10:07:56.060Z,90.54
2019-01-12T10:13:00.109Z,90.35
2019-01-12T10:18:03.061Z,90.37
2019-01-12T10:23:05.858Z,90.48
2019-01-12T10:28:08.561Z,90.45
2019-01-12T10:33:11.391Z,90.37
2019-01-12T10:38:14.300Z,90.40
2019-01-12T10:43:17.776Z,90.45
2019-01-12T10:48:20.503Z,90.41
2019-01-12T10:53:23.331Z,90.50
2019-01-12T10:58:26.292Z,90.65
2019-01-12T11:03:29.305Z,90.67
2019-01-12T11:08:32.175Z,90.65
2019-01-12T11:13:37.701Z,90.44
2019-01-12T11:18:40.596Z,90.62
2019-01-12T11:23:43.437Z,90.32
2019-01-12T11:28:46.332Z,90.33
2019-01-12T11:33:49.082Z,90.20
2019-01-12T11:38:51.811Z,90.29
2019-01-12T11:43:54.452Z,90.34
2019-01-12T11:48:57.322Z,90.25
2019-01-12T11:54:00.140Z,90.23
2019-01-12T11:59:02.939Z,90.35
2019-01-12T12:04:05.782Z,90.34
2019-01-12T12:09:08.916Z,90.20
2019-01-12T12:14:11.745Z,90.31
2019-01-12T12:19:14.462Z,90.03
2019-01-12T12:24:17.334Z,90.13
2019-01-12T12:29:20.174Z,90.21
2019-01-12T12:34:23.053Z,90.06
2019-01-12T12:39:25.705Z,90.11
2019-01-12T12:44:28.435Z,89.97
2019-01-12T12:49:31.209Z,89.87
2019-01-12T12:54:34.262Z,89.75
2019-01-12T12:59:37.091Z,89.50
2019-01-12T13:04:39.885Z,89.75
2019-01-12T13:09:42.691Z,89.56
2019-01-12T13:14:45.340Z,89.26
2019-01-12T13:19:48.052Z,89.14
2019-01-12T13:24:50.907Z,89.21
2019-01-12T13:29:53.546Z,88.39
2019-01-12T13:34:56.537Z,88.36
2019-01-12T13:39:59.302Z,88.92
2019-01-12T13:45:02.170Z,88.72
2019-01-12T13:50:07.183Z,88.58
2019-01-12T13:55:12.513Z,89.46
2019-01-12T14:00:19.513Z,90.34
2019-01-12T14:05:22.662Z,90.68
2019-01-12T14:10:26.214Z,90.80
2019-01-12T14:15:29.381Z,90.53
2019-01-12T14:20:35.391Z,90.36
2019-01-12T14:25:38.139Z,90.08
2019-01-12T14:30:41.139Z,90.39
2019-01-12T14:35:44.039Z,90.29
2019-01-12T14:40:46.931Z,90.13
2019-01-12T14:45:49.888Z,90.31
2019-01-12T14:50:53.762Z,90.15
2019-01-12T14:55:56.800Z,89.74
2019-01-12T15:00:59.532Z,89.82
2019-01-12T15:06:02.462Z,89.81
2019-01-12T15:11:05.400Z,89.63
2019-01-12T15:16:08.280Z,89.56
2019-01-12T15:21:11.081Z,89.57
2019-01-12T15:26:14.085Z,89.67
2019-01-12T15:31:16.958Z,89.29
2019-01-12T15:36:20.202Z,89.32
2019-01-12T15:41:23.042Z,89.05
2019-01-12T15:46:25.881Z,88.59
2019-01-12T15:51:28.740Z,88.66
2019-01-12T15:56:31.463Z,88.77
2019-01-12T16:01:34.340Z,88.74
2019-01-12T16:06:37.122Z,89.15
2019-01-12T16:11:39.961Z,89.00
2019-01-12T16:16:42.752Z,89.14
2019-01-12T16:21:45.684Z,88.75
2019-01-12T16:26:48.541Z,89.30
2019-01-12T16:31:51.543Z,89.43
2019-01-12T16:36:54.323Z,89.13
2019-01-12T16:41:57.027Z,89.18
2019-01-12T16:46:59.761Z,88.98
2019-01-12T16:52:02.834Z,89.00
2019-01-12T16:57:05.570Z,89.07
2019-01-12T17:02:08.324Z,89.13
2019-01-12T17:07:11.195Z,89.26
2019-01-12T17:12:14.049Z,89.40
2019-01-12T17:17:16.970Z,89.49
2019-01-12T17:22:19.928Z,89.60
2019-01-12T17:27:22.751Z,89.67
2019-01-12T17:32:25.751Z,89.63
2019-01-12T17:37:28.718Z,89.75
2019-01-12T17:42:31.788Z,89.67
2019-01-12T17:47:34.608Z,89.82
2019-01-12T17:52:38.763Z,89.86
2019-01-12T17:57:41.907Z,89.78
2019-01-12T18:02:44.849Z,89.79
2019-01-12T18:07:47.810Z,89.80
2019-01-12T18:12:50.610Z,89.79
2019-01-12T18:17:53.696Z,89.97
2019-01-12T18:22:56.649Z,90.20
2019-01-12T18:27:59.789Z,90.22
2019-01-12T18:33:02.812Z,90.14
2019-01-12T18:38:05.952Z,90.16
2019-01-12T18:43:08.929Z,90.22
2019-01-12T18:48:12.010Z,90.24
2019-01-12T18:53:14.987Z,90.31
2019-01-12T18:58:17.993Z,90.27
2019-01-12T19:03:20.854Z,90.40
2019-01-12T19:08:23.911Z,90.42
2019-01-12T19:13:26.710Z,90.49
2019-01-12T19:18:29.649Z,90.47
2019-01-12T19:23:32.592Z,90.24
2019-01-12T19:28:35.559Z,90.38
2019-01-12T19:33:38.457Z,90.38
2019-01-12T19:38:41.416Z,90.51
2019-01-12T19:43:45.111Z,90.57
2019-01-12T19:48:47.908Z,90.74
2019-01-12T19:53:50.986Z,90.78
2019-01-12T19:58:53.736Z,90.75
2019-01-12T20:03:56.596Z,90.69
2019-01-12T20:08:59.346Z,90.68
2019-01-12T20:14:02.234Z,90.46
2019-01-12T20:19:05.383Z,90.45
2019-01-12T20:24:08.223Z,89.92
2019-01-12T20:29:11.211Z,89.77
2019-01-12T20:34:22.427Z,89.72
2019-01-12T20:39:35.631Z,89.72
2019-01-12T20:44:56.354Z,89.63
2019-01-12T20:50:10.581Z,89.34
2019-01-12T20:55:37.063Z,89.62
2019-01-12T21:00:54.546Z,89.93
2019-01-12T21:06:08.273Z,89.96
2019-01-12T21:11:30.848Z,90.00
2019-01-12T21:16:38.674Z,90.32
2019-01-12T21:21:41.594Z,90.72
2019-01-12T21:26:44.385Z,90.89
2019-01-12T21:31:47.088Z,90.87
2019-01-12T21:36:49.928Z,90.60
2019-01-12T21:41:52.876Z,90.58
2019-01-12T21:46:55.880Z,90.17
2019-01-12T21:51:58.926Z,90.29
2019-01-12T21:57:01.923Z,90.29
2019-01-12T22:02:05.089Z,90.20
2019-01-12T22:07:08.008Z,90.22
2019-01-12T22:12:10.848Z,90.46
2019-01-12T22:17:13.680Z,90.25
2019-01-12T22:22:16.538Z,90.37
2019-01-12T22:27:19.474Z,90.61
2019-01-12T22:32:22.319Z,90.88
2019-01-12T22:37:25.163Z,90.85
2019-01-12T22:42:27.902Z,90.95
2019-01-12T22:47:30.657Z,90.77
2019-01-12T22:52:33.391Z,90.59
2019-01-12T22:57:36.258Z,90.51
2019-01-12T23:02:39.051Z,90.86
2019-01-12T23:07:42.079Z,91.10
2019-01-12T23:12:45.098Z,91.06
2019-01-12T23:17:48.053Z,91.11
2019-01-12T23:22:50.792Z,91.19
2019-01-12T23:27:53.568Z,91.32
2019-01-12T23:32:56.445Z,91.12
2019-01-12T23:37:59.160Z,91.30
2019-01-12T23:43:01.993Z,91.21
2019-01-12T23:48:05.117Z,91.48
2019-01-12T23:53:08.015Z,91.59
2019-01-12T23:58:11.895Z,91.51
